• Join FlightAware (Why Join?)
  • Login
  • US Flag 
01:48PM EDT


 

Airport Tracker/Info


-or-


 

Live Flight TrackerFlight Track Log ✈ N343GC ✈ 03-May-2012 ✈ KBFI - PAKT / KTN

Flight Track Log - Related Links

Times and Time Zones

All times are in EDT time to prevent confusion due to time zone crossing. See the N343GC flight status page for this flight to view local times or setup timezone preferences in your user account.

Time Position Orientation Groundspeed Altitude Reporting Facility
EDT Latitude Longitude Course Direction KTS MPH feet Rate Location/Type
01:18PM 47.5031 -122.2794 150° Southeast 109 125 600  Level Seattle Center
01:20PM 47.4658 -122.2475 149° Southeast 114 131 1,700 840 Climbing Seattle Center
01:21PM 47.4342 -122.2192 249° West 110 127 2,800 840 Climbing Seattle Center
01:22PM 47.4253 -122.2536 291° West 127 146 3,600 780 Climbing Seattle Center
01:23PM 47.4414 -122.3172 309° West 130 150 4,600 660 Climbing Seattle Center
01:24PM 47.4619 -122.3550 343° North 127 146 5,200 780 Climbing Seattle Center
01:25PM 47.5092 -122.3761 300° West 149 171 6,200 840 Climbing Seattle Center
01:26PM 47.5278 -122.4236 282° West 135 155 7,000 720 Climbing Seattle Center
01:27PM 47.5364 -122.4814 284° West 132 152 7,700 660 Climbing Seattle Center
01:28PM 47.5450 -122.5336 296° West 134 154 8,400 540 Climbing Seattle Center
01:29PM 47.5619 -122.5847 297° West 139 160 8,900 540 Climbing Seattle Center
01:30PM 47.5792 -122.6344 297° West 137 158 9,600 540 Climbing Seattle Center
01:31PM 47.5972 -122.6869 299° West 134 154 10,100 480 Climbing Seattle Center
01:32PM 47.6156 -122.7364 338° Northwest 136 157 10,600 420 Climbing Seattle Center
01:33PM 47.6544 -122.7600 336° Northwest 147 169 11,000 360 Climbing Seattle Center
01:34PM 47.6914 -122.7850 336° Northwest 146 168 11,400 360 Climbing Seattle Center
01:35PM 47.7281 -122.8092 336° Northwest 145 167 11,800 240 Climbing Seattle Center
01:36PM 47.7686 -122.8364 335° Northwest 147 169 12,000 60 Climbing Seattle Center
01:37PM 47.8094 -122.8644 336° Northwest 158 182 12,000  Level Seattle Center
01:38PM 47.8522 -122.8931 336° Northwest 166 191 12,000  Level Seattle Center
01:39PM 47.8944 -122.9211 336° Northwest 166 191 12,000  Level Seattle Center
01:40PM 47.9406 -122.9517 336° Northwest 168 193 12,000  Level Seattle Center
01:41PM 47.9828 -122.9800 336° Northwest 167 192 12,000  Level Seattle Center
01:42PM 48.0258 -123.0092 335° Northwest 170 196 12,000  Level Seattle Center
01:43PM 48.0706 -123.0400 336° Northwest 174 200 12,000  Level Seattle Center
01:44PM 48.1147 -123.0689 337° Northwest 174 200 12,000  Level Seattle Center
01:45PM 48.1625 -123.1000 335° Northwest 174 200 12,000  Level Seattle Center
01:46PM 48.2061 -123.1300 335° Northwest 174 200 12,100 180 Climbing Seattle Center
01:47PM 48.2472 -123.1589 323° Northwest 167 192 12,400 300 Climbing Seattle Center
01:49PM 48.2833 -123.2000 342° North 160 184 12,800 300 Climbing Vancouver Center
01:50PM 48.3167 -123.2167 326° Northwest 160 184 13,100 300 Climbing Vancouver Center
01:51PM 48.3500 -123.2500 348° North 160 184 13,400 300 Climbing Vancouver Center
01:52PM 48.4000 -123.2667 326° Northwest 160 184 13,700 300 Climbing Vancouver Center
01:53PM 48.4333 -123.3000 348° North 160 184 14,000 180 Climbing Vancouver Center
01:54PM 48.4833 -123.3167 326° Northwest 170 196 14,100  Climbing Vancouver Center
01:55PM 48.5333 -123.3667 327° Northwest 180 207 14,100  Level Vancouver Center
01:56PM 48.5667 -123.4000 348° North 170 196 14,100  Level Vancouver Center
01:57PM 48.6167 -123.4167 336° Northwest 180 207 14,100  Level Vancouver Center
01:58PM 48.6667 -123.4500 315° West 180 207 14,100  Level Vancouver Center
01:59PM 48.7000 -123.5000 348° North 180 207 14,100  Level Vancouver Center
02:00PM 48.7500 -123.5167 315° West 170 196 14,100  Level Vancouver Center
02:01PM 48.7833 -123.5667 336° Northwest 170 196 14,100  Level Vancouver Center
02:02PM 48.8333 -123.6000 315° West 180 207 14,100  Level Vancouver Center
02:03PM 48.8667 -123.6500 348° North 180 207 14,100  Level Vancouver Center
02:04PM 48.9167 -123.6667 315° West 180 207 14,100  Level Vancouver Center
02:05PM 48.9500 -123.7167 327° Northwest 180 207 14,100  Level Vancouver Center
02:06PM 49.0000 -123.7667 327° Northwest 170 196 14,100  Level Vancouver Center
02:07PM 49.0333 -123.8000 327° Northwest 180 207 14,100  Level Vancouver Center
02:08PM 49.0833 -123.8500 327° Northwest 170 196 14,100  Level Vancouver Center
02:09PM 49.1167 -123.8833 316° Northwest 180 207 14,100  Level Vancouver Center
02:10PM 49.1500 -123.9333 348° North 170 196 14,100 -60 Level Vancouver Center
02:11PM 49.2000 -123.9500 316° Northwest 170 196 14,000 -60 Descending Vancouver Center
02:12PM 49.2333 -124.0000 336° Northwest 170 196 14,000  Level Vancouver Center
02:13PM 49.2833 -124.0333 316° Northwest 170 196 14,000  Level Vancouver Center
02:14PM 49.3167 -124.0833 327° Northwest 180 207 14,000  Level Vancouver Center
02:15PM 49.3667 -124.1333 327° Northwest 180 207 14,000  Level Vancouver Center
02:16PM 49.4000 -124.1667 327° Northwest 180 207 14,000  Level Vancouver Center
02:17PM 49.4500 -124.2167 342° North 170 196 14,000  Level Vancouver Center
02:18PM 49.4833 -124.2333 327° Northwest 180 207 14,000  Level Vancouver Center
02:19PM 49.5333 -124.2833 327° Northwest 180 207 14,000  Level Vancouver Center
02:20PM 49.5667 -124.3167 327° Northwest 180 207 14,000  Level Vancouver Center
02:21PM 49.6167 -124.3667 316° Northwest 180 207 14,000  Level Vancouver Center
02:22PM 49.6500 -124.4167 337° Northwest 180 207 14,000  Level Vancouver Center
02:23PM 49.7000 -124.4500 316° Northwest 170 196 14,000  Level Vancouver Center
02:24PM 49.7333 -124.5000 342° North 180 207 14,000  Level Vancouver Center
02:25PM 49.7667 -124.5167 319° Northwest 170 196 14,000  Level Vancouver Center
02:26PM 49.8167 -124.5833 342° North 170 196 14,000  Level Vancouver Center
02:27PM 49.8500 -124.6000 327° Northwest 170 196 14,000  Level Vancouver Center
02:28PM 49.9000 -124.6500 316° Northwest 170 196 14,000  Level Vancouver Center
02:29PM 49.9333 -124.7000 327° Northwest 170 196 14,000  Level Vancouver Center
02:30PM 49.9667 -124.7333 327° Northwest 170 196 14,000  Level Vancouver Center
02:31PM 50.0167 -124.7833 327° Northwest 170 196 14,000  Level Vancouver Center
02:32PM 50.0500 -124.8167 327° Northwest 170 196 14,000  Level Vancouver Center
02:33PM 50.1000 -124.8667 327° Northwest 170 196 14,000  Level Vancouver Center
02:34PM 50.1333 -124.9000 316° Northwest 170 196 14,000  Level Vancouver Center
02:35PM 50.1667 -124.9500 348° North 170 196 14,000  Level Vancouver Center
02:36PM 50.2167 -124.9667 308° West 170 196 14,000  Level Vancouver Center
02:37PM 50.2500 -125.0333 316° Northwest 170 196 14,000  Level Vancouver Center
02:38PM 50.2833 -125.0833 316° Northwest 170 196 14,000  Level Vancouver Center
02:39PM 50.3167 -125.1333 316° Northwest 170 196 14,000  Level Vancouver Center
02:40PM 50.3500 -125.1833 316° Northwest 170 196 14,000  Level Vancouver Center
02:41PM 50.3833 -125.2333 320° Northwest 170 196 14,000  Level Vancouver Center
02:42PM 50.4333 -125.3000 316° Northwest 170 196 14,000  Level Vancouver Center
02:43PM 50.4667 -125.3500 316° Northwest 170 196 14,000  Level Vancouver Center
02:44PM 50.5000 -125.4000 316° Northwest 170 196 14,000  Level Vancouver Center
02:45PM 50.5333 -125.4500 316° Northwest 170 196 14,000  Level Vancouver Center
02:46PM 50.5667 -125.5000 308° West 170 196 14,000  Level Vancouver Center
02:47PM 50.6000 -125.5667 316° Northwest 170 196 14,000  Level Vancouver Center
02:48PM 50.6333 -125.6167 316° Northwest 170 196 14,000  Level Vancouver Center
02:49PM 50.6667 -125.6667 316° Northwest 170 196 14,000  Level Vancouver Center
02:50PM 50.7000 -125.7167 308° West 180 207 14,000  Level Vancouver Center
02:51PM 50.7333 -125.7833 317° Northwest 170 196 14,000  Level Vancouver Center
02:52PM 50.7667 -125.8333 328° Northwest 170 196 14,000  Level Vancouver Center
02:53PM 50.8000 -125.8667 308° West 170 196 14,000  Level Vancouver Center
02:54PM 50.8333 -125.9333 308° West 170 196 14,000  Level Vancouver Center
02:55PM 50.8667 -126.0000 342° North 170 196 14,000  Level Vancouver Center
02:56PM 50.9000 -126.0167 308° West 170 196 14,000  Level Vancouver Center
02:57PM 50.9333 -126.0833 317° Northwest 170 196 14,000  Level Vancouver Center
02:58PM 50.9667 -126.1333 317° Northwest 170 196 14,000  Level Vancouver Center
02:59PM 51.0000 -126.1833 317° Northwest 170 196 14,000  Level Vancouver Center
03:00PM 51.0333 -126.2333 309° West 170 196 14,000  Level Vancouver Center
03:01PM 51.0667 -126.3000 328° Northwest 170 196 14,000  Level Vancouver Center
03:02PM 51.1167 -126.3500 317° Northwest 170 196 14,000  Level Vancouver Center
03:03PM 51.1500 -126.4000 309° West 170 196 14,000  Level Vancouver Center
03:04PM 51.1833 -126.4667 317° Northwest 170 196 14,000  Level Vancouver Center
03:05PM 51.2167 -126.5167 317° Northwest 170 196 14,000  Level Vancouver Center
03:06PM 51.2500 -126.5667 309° West 170 196 14,000  Level Vancouver Center
03:07PM 51.2833 -126.6333 298° West 180 207 14,000  Level Vancouver Center
03:08PM 51.3000 -126.6833 328° Northwest 180 207 14,000  Level Vancouver Center
03:09PM 51.3500 -126.7333 309° West 180 207 14,000  Level Vancouver Center
03:10PM 51.3833 -126.8000 317° Northwest 180 207 14,000  Level Vancouver Center
03:11PM 51.4167 -126.8500 317° Northwest 180 207 14,000  Level Vancouver Center
03:12PM 51.4500 -126.9000 303° West 180 207 14,000  Level Vancouver Center
03:13PM 51.4833 -126.9833 309° West 180 207 14,000  Level Vancouver Center
03:14PM 51.5167 -127.0500 343° North 180 207 14,000  Level Vancouver Center
03:15PM 51.5500 -127.0667 309° West 180 207 14,000  Level Vancouver Center
03:16PM 51.6000 -127.1667 343° North 180 207 14,000  Level Vancouver Center
03:17PM 51.6333 -127.1833 303° West 180 207 14,000  Level Vancouver Center
03:18PM 51.6667 -127.2667 292° West 180 207 14,100  Climbing Vancouver Center
03:19PM 51.6833 -127.3333 317° Northwest 180 207 14,100  Level Vancouver Center
03:20PM 51.7167 -127.3833 317° Northwest 180 207 14,100  Level Vancouver Center
03:21PM 51.7500 -127.4333 321° Northwest 180 207 14,100  Level Vancouver Center
03:22PM 51.8000 -127.5000 317° Northwest 180 207 14,100  Level Vancouver Center
03:23PM 51.8333 -127.5500 309° West 180 207 14,100  Level Vancouver Center
03:24PM 51.8667 -127.6167 317° Northwest 180 207 14,100  Level Vancouver Center
03:25PM 51.9000 -127.6667 317° Northwest 180 207 14,100  Level Vancouver Center
03:26PM 51.9333 -127.7167 309° West 180 207 14,100  Level Vancouver Center
03:27PM 51.9667 -127.7833 328° Northwest 180 207 14,100  Level Vancouver Center
03:28PM 52.0167 -127.8333 292° West 180 207 14,100  Level Vancouver Center
03:29PM 52.0333 -127.9000 317° Northwest 180 207 14,100  Level Vancouver Center
03:30PM 52.0667 -127.9500 309° West 180 207 14,100  Level Vancouver Center
03:31PM 52.1000 -128.0167 317° Northwest 180 207 14,100  Level Vancouver Center
03:32PM 52.1333 -128.0667 309° West 180 207 14,100  Level Vancouver Center
03:33PM 52.1667 -128.1333 329° Northwest 180 207 14,100  Level Vancouver Center
03:34PM 52.2167 -128.1833 338° Northwest 180 207 14,100  Level Vancouver Center
03:35PM 52.2667 -128.2167 329° Northwest 180 207 14,100  Level Vancouver Center
03:36PM 52.3000 -128.2500 329° Northwest 180 207 14,100  Level Vancouver Center
03:37PM 52.3500 -128.3000 329° Northwest 170 196 14,100  Level Vancouver Center
03:38PM 52.3833 -128.3333 309° West 170 196 14,100  Level Vancouver Center
03:39PM 52.4167 -128.4000 329° Northwest 170 196 14,100  Level Vancouver Center
03:40PM 52.4500 -128.4333 329° Northwest 170 196 14,100  Level Vancouver Center
03:41PM 52.5000 -128.4833 329° Northwest 170 196 14,100  Level Vancouver Center
03:42PM 52.5333 -128.5167 338° Northwest 170 196 14,100  Level Vancouver Center
03:43PM 52.5833 -128.5500 309° West 170 196 14,100  Level Vancouver Center
03:44PM 52.6167 -128.6167 338° Northwest 170 196 14,100  Level Vancouver Center
03:45PM 52.6667 -128.6500 318° Northwest 170 196 14,100 -60 Level Vancouver Center
03:46PM 52.7000 -128.7000 338° Northwest 180 207 14,000 -60 Descending Vancouver Center
03:47PM 52.7500 -128.7333 292° West 180 207 14,000  Level Vancouver Center
03:48PM 52.7667 -128.8000 338° Northwest 180 207 14,000  Level Vancouver Center
03:49PM 52.8167 -128.8333 338° Northwest 170 196 14,000  Level Vancouver Center
03:50PM 52.8667 -128.8667 318° Northwest 180 207 14,000  Level Vancouver Center
03:51PM 52.9000 -128.9167 338° Northwest 170 196 14,000  Level Vancouver Center
03:52PM 52.9500 -128.9500 310° West 170 196 14,000  Level Vancouver Center
03:53PM 52.9833 -129.0167 338° Northwest 170 196 14,000  Level Vancouver Center
03:54PM 53.0333 -129.0500 318° Northwest 180 207 14,000  Level Vancouver Center
03:55PM 53.0667 -129.1000 338° Northwest 180 207 14,000  Level Vancouver Center
03:56PM 53.1167 -129.1333 310° West 180 207 14,000  Level Vancouver Center
03:57PM 53.1500 -129.2000 329° Northwest 180 207 14,000  Level Vancouver Center
03:58PM 53.1833 -129.2333 321° Northwest 180 207 14,000  Level Vancouver Center
03:59PM 53.2333 -129.3000 338° Northwest 180 207 14,000  Level Vancouver Center
04:00PM 53.2833 -129.3333 318° Northwest 180 207 14,000  Level Vancouver Center
04:01PM 53.3167 -129.3833 338° Northwest 180 207 14,000  Level Vancouver Center
04:02PM 53.3667 -129.4167 310° West 180 207 14,000  Level Vancouver Center
04:03PM 53.4000 -129.4833 338° Northwest 180 207 14,000  Level Vancouver Center
04:04PM 53.4500 -129.5167 322° Northwest 180 207 14,000  Level Vancouver Center
04:05PM 53.5000 -129.5833 310° West 180 207 14,000  Level Vancouver Center
04:06PM 53.5167 -129.6167 322° Northwest 180 207 14,000  Level Vancouver Center
04:07PM 53.5667 -129.6833 338° Northwest 180 207 14,000  Level Vancouver Center
04:08PM 53.6167 -129.7167 318° Northwest 180 207 14,000  Level Vancouver Center
04:09PM 53.6500 -129.7667 338° Northwest 180 207 14,000  Level Vancouver Center
04:10PM 53.7000 -129.8000 322° Northwest 180 207 14,000  Level Vancouver Center
04:11PM 53.7500 -129.8667 329° Northwest 180 207 14,000  Level Vancouver Center
04:12PM 53.7833 -129.9000 310° West 180 207 14,000  Level Vancouver Center
04:13PM 53.8167 -129.9667 329° Northwest 180 207 14,000  Level Vancouver Center
04:14PM 53.8500 -130.0000 339° North 180 207 14,000  Level Vancouver Center
04:15PM 53.9000 -130.0333 322° Northwest 180 207 14,000  Level Vancouver Center
04:16PM 53.9500 -130.1000 330° Northwest 180 207 14,000  Level Vancouver Center
04:17PM 53.9833 -130.1333 322° Northwest 180 207 14,000  Level Vancouver Center
04:18PM 54.0333 -130.2000 330° Northwest 180 207 14,000  Level Vancouver Center
04:19PM 54.0667 -130.2333 322° Northwest 180 207 14,000  Level Vancouver Center
04:20PM 54.1167 -130.3000 310° West 180 207 14,000  Level Vancouver Center
04:21PM 54.1333 -130.3333 330° Northwest 180 207 14,000  Level Vancouver Center
04:22PM 54.1833 -130.3833 330° Northwest 180 207 14,000  Level Vancouver Center
04:23PM 54.2333 -130.4333 319° Northwest 180 207 14,000  Level Vancouver Center
04:24PM 54.2667 -130.4833 339° North 180 207 14,000  Level Vancouver Center
04:25PM 54.3167 -130.5167 330° Northwest 180 207 14,000  Level Vancouver Center
04:26PM 54.3667 -130.5667 319° Northwest 180 207 14,000  Level Vancouver Center
04:27PM 54.4000 -130.6167 319° Northwest 180 207 14,000  Level Vancouver Center
04:28PM 54.4333 -130.6667 319° Northwest 180 207 14,000  Level Vancouver Center
04:29PM 54.4667 -130.7167 330° Northwest 180 207 14,000  Level Vancouver Center
04:30PM 54.5167 -130.7667 330° Northwest 180 207 14,000 -360 Level Vancouver Center
04:31PM 54.5667 -130.8167 330° Northwest 190 219 13,300 -780 Descending Vancouver Center
04:32PM 54.6167 -130.8667 322° Northwest 200 230 12,500 -840 Descending Vancouver Center
04:33PM 54.6667 -130.9333 30° Northeast 200 230 11,700 -780 Descending Vancouver Center
04:33PM 54.6833 -130.9167 330° Northwest 200 230 11,200 -780 Descending Anchorage Center
04:34PM 54.7333 -130.9667 305° West 190 219 10,400 -840 Descending Anchorage Center
04:35PM 54.7667 -131.0500 322° Northwest 200 230 9,600 -900 Descending Anchorage Center
04:36PM 54.8167 -131.1167 319° Northwest 200 230 8,700 -780 Descending Anchorage Center
04:37PM 54.8500 -131.1667 311° West 190 219 8,100 -600 Descending Anchorage Center
04:38PM 54.8833 -131.2333 311° West 180 207 7,500 -600 Descending Anchorage Center
04:39PM 54.9167 -131.3000 311° West 180 207 6,900 -600 Descending Anchorage Center
04:40PM 54.9500 -131.3667 319° Northwest 180 207 6,300 -240 Descending Anchorage Center
04:43PM 55.0500 -131.5167 311° West 150 173 6,000 -120 Descending Anchorage Center
04:44PM 55.0833 -131.5833 311° West 160 184 6,000  Level Anchorage Center
04:45PM 55.1167 -131.6500 41° Northeast 160 184 6,000 -120 Level Vancouver Center
04:46PM 55.1500 -131.6000 349° North 160 184 5,800 -840 Descending Vancouver Center
04:47PM 55.2000 -131.6167 342° North 180 207 4,400 -1,440 Descending Vancouver Center
04:55PM 55.3500 -131.7000 303° West  Level FlightAware Approximate
04:56PM 55.3753 -131.7697 123° Southeast  Level Estimated
04:57PM 55.3500 -131.7000 303° West  Level FlightAware Approximate
04:58PM 55.3753 -131.7697 123° Southeast  Level Estimated
04:59PM 55.3500 -131.7000 303° West  Level FlightAware Approximate
05:00PM 55.3753 -131.7697 123° Southeast  Level Estimated
05:01PM 55.3500 -131.7000 303° West  Level FlightAware Approximate
05:02PM 55.3753 -131.7697 123° Southeast  Level Estimated
05:03PM 55.3500 -131.7000 303° West  Level FlightAware Approximate
05:04PM 55.3753 -131.7697 303° West  Level Estimated